Flight Track Log - Related Links

Times and Time Zones

All times are in EDT time to prevent confusion due to time zone crossing. See the N5827M flight status page for this flight to view local times or setup timezone preferences in your user account.

Time Position Orientation Groundspeed Altitude Reporting Facility
EDT Latitude Longitude Course Direction KTS MPH feet Rate Location/Type
Fri 11:51:20 AM 32.9433 -90.4611 140° Southeast 173 199 2,000  Level Memphis Center
Fri 11:52:20 AM 32.9411 -90.4217 94° East 112 129 2,900 900 Climbing Memphis Center
Fri 11:53:20 AM 32.9453 -90.3794 83° East 98 113 3,800 850 Climbing Memphis Center
Fri 11:54:20 AM 32.9558 -90.3350 74° East 120 138 4,600 850 Climbing Memphis Center
Fri 11:55:20 AM 32.9664 -90.2928 73° East 126 145 5,500 850 Climbing Memphis Center
Fri 11:56:00 AM 32.9449 -90.1086 140° Southeast  Level Estimated
Fri 11:56:20 AM 32.9786 -90.2483 72° East 131 151 6,300  Level Memphis Center
Fri 11:57:20 AM 32.9892 -90.2011 75° East 131 151 7,100 850 Climbing Memphis Center
Fri 11:58:20 AM 32.9994 -90.1567 75° East 136 157 8,000 850 Climbing Memphis Center
Fri 11:59:20 AM 33.0097 -90.1069 76° East 142 163 8,800 850 Climbing Memphis Center
Fri 12:00:20 PM 33.0222 -90.0600 72° East 142 163 9,700 900 Climbing Memphis Center
Fri 12:01:20 PM 33.0306 -90.0103 79° East 142 163 10,600 800 Climbing Memphis Center
Fri 12:02:20 PM 33.0408 -89.9608 76° East 142 163 11,300 800 Climbing Memphis Center
Fri 12:03:20 PM 33.0511 -89.9111 76° East 142 163 12,200 800 Climbing Memphis Center
Fri 12:04:20 PM 33.0614 -89.8614 76° East 142 163 12,900 750 Climbing Memphis Center
Fri 12:05:20 PM 33.0736 -89.8094 74° East 142 163 13,700 850 Climbing Memphis Center
Fri 12:06:20 PM 33.0900 -89.7597 69° East 147 169 14,600 700 Climbing Memphis Center
Fri 12:07:20 PM 33.1044 -89.7125 70° East 147 169 15,100 250 Climbing Memphis Center
Fri 12:08:20 PM 33.1167 -89.6553 76° East 154 177 15,100  Level Memphis Center
Fri 12:09:20 PM 33.1350 -89.5981 69° East 168 193 15,100  Level Memphis Center
Fri 12:10:20 PM 33.1536 -89.5383 70° East 173 199 15,100  Level Memphis Center
Fri 12:11:20 PM 33.1739 -89.4786 68° East 185 213 15,100  Level Memphis Center
Fri 12:12:20 PM 33.1944 -89.4164 68° East 193 222 15,100 50 Level Memphis Center
Fri 12:13:20 PM 33.2128 -89.3592 69° East 193 222 15,200  Climbing Memphis Center
Fri 12:13:59 PM 33.2269 -89.3142 69° East 190 219 15,100  Descending Memphis Center
Fri 12:14:20 PM 33.2311 -89.2992 72° East 193 222 15,200  Climbing Memphis Center
Fri 12:14:41 PM 33.2392 -89.2742 69° East 191 220 15,100 -100 Descending Memphis Center
Fri 12:15:20 PM 33.2514 -89.2369 69° East 193 222 15,100  Level Memphis Center
Fri 12:15:42 PM 33.2614 -89.2094 66° East 195 224 15,100 100 Level Memphis Center
Fri 12:16:20 PM 33.2694 -89.1769 73° East 193 222 15,200  Climbing Memphis Center
Fri 12:16:43 PM 33.2797 -89.1494 66° East 193 222 15,100  Descending Memphis Center
Fri 12:17:20 PM 33.2878 -89.1172 73° East 193 222 15,200 -98 Climbing Memphis Center
Fri 12:17:44 PM 33.3000 -89.0872 64° Northeast 193 222 15,000  Descending Memphis Center
Fri 12:18:20 PM 33.3081 -89.0572 72° East 193 222 15,200  Climbing Memphis Center
Fri 12:18:56 PM 33.3222 -89.0172 67° East 191 220 15,000  Descending Memphis Center
Fri 12:19:20 PM 33.3261 -88.9997 75° East 193 222 15,200 98 Climbing Memphis Center
Fri 12:19:57 PM 33.3425 -88.9572 65° Northeast 191 220 15,100  Descending Memphis Center
Fri 12:20:20 PM 33.3464 -88.9397 75° East 193 222 15,200  Climbing Memphis Center
Fri 12:20:58 PM 33.3606 -88.8997 67° East 191 220 15,100  Descending Memphis Center
Fri 12:21:20 PM 33.3667 -88.8822 67° East 193 222 15,200 -100 Climbing Memphis Center
Fri 12:21:58 PM 33.3786 -88.8347 73° East 191 220 15,000 -100 Descending Memphis Center
Fri 12:22:20 PM 33.3825 -88.8222 70° East 193 222 15,100 109 Climbing Memphis Center
Fri 12:22:53 PM 33.3967 -88.7797 68° East 193 222 15,100 100 Level Memphis Center
Fri 12:23:20 PM 33.4028 -88.7622 67° East 193 222 15,200  Climbing Memphis Center
Fri 12:23:53 PM 33.4147 -88.7222 70° East 191 220 15,100  Descending Memphis Center
Fri 12:24:20 PM 33.4228 -88.7022 64° Northeast 188 216 15,200  Climbing Memphis Center
Fri 12:24:54 PM 33.4347 -88.6669 68° East 188 216 15,100  Descending Memphis Center
Fri 12:25:20 PM 33.4408 -88.6469 70° East 188 216 15,200  Climbing Memphis Center
Fri 12:25:55 PM 33.4528 -88.6094 69° East 186 214 15,100  Descending Memphis Center
Fri 12:26:20 PM 33.4608 -88.5892 65° Northeast 188 216 15,200  Climbing Memphis Center
Fri 12:26:49 PM 33.4708 -88.5567 70° East 185 213 15,100  Descending Memphis Center
Fri 12:27:20 PM 33.4767 -88.5317 74° East 188 216 15,200  Climbing Memphis Center
Fri 12:27:50 PM 33.4867 -88.4942 72° East 186 214 15,100  Descending Memphis Center
Fri 12:28:20 PM 33.4883 -88.4717 85° East 183 211 15,200  Climbing Memphis Center
Fri 12:28:56 PM 33.4856 -88.4294 94° East 184 212 15,100 -62 Descending Memphis Center
Fri 12:29:57 PM 33.4889 -88.3694 86° East 183 211 15,100  Level Memphis Center
Fri 12:30:58 PM 33.4919 -88.3047 87° East 181 208 15,100  Level Memphis Center
Fri 12:31:58 PM 33.4953 -88.2472 86° East 179 206 15,100  Level Memphis Center
Fri 12:32:59 PM 33.4964 -88.1875 89° East 180 207 15,100  Level Memphis Center
Fri 12:35:25 PM 33.5017 -88.0419 87° East 195 224 15,100  Level Atlanta Center
Fri 12:36:25 PM 33.5058 -87.9825 85° East 183 211 15,100  Level Atlanta Center
Fri 12:37:25 PM 33.5078 -87.9178 88° East 183 211 15,100  Level Atlanta Center
Fri 12:38:25 PM 33.5094 -87.8606 88° East 178 205 15,100  Level Atlanta Center
Fri 12:39:25 PM 33.5136 -87.7958 86° East 178 205 15,100  Level Atlanta Center
Fri 12:40:25 PM 33.5156 -87.7361 88° East 178 205 15,100  Level Atlanta Center
Fri 12:41:25 PM 33.5172 -87.6764 88° East 178 205 15,100 50 Level Atlanta Center
Fri 12:42:25 PM 33.5192 -87.6144 88° East 178 205 15,200  Climbing Atlanta Center
Fri 12:43:25 PM 33.5228 -87.5572 86° East 178 205 15,100 -100 Descending Atlanta Center
Fri 12:44:25 PM 33.5244 -87.4975 88° East 178 205 15,000 -100 Descending Atlanta Center
Fri 12:45:25 PM 33.5261 -87.4353 88° East 178 205 14,900 -320 Descending Atlanta Center
Fri 12:45:40 PM 33.5267 -87.4153 88° East 186 214 14,600 -741 Descending Atlanta Center
Fri 12:46:46 PM 33.5286 -87.3431 88° East 205 236 13,900 -571 Descending Atlanta Center
Fri 12:47:25 PM 33.5297 -87.3008 88° East 189 217 13,600 -716 Descending Atlanta Center
Fri 12:47:53 PM 33.5308 -87.2636 88° East 208 239 13,100 -700 Descending Atlanta Center
Fri 12:48:25 PM 33.5317 -87.2311 88° East 200 230 12,900 -492 Descending Atlanta Center
Fri 12:48:54 PM 33.5283 -87.1961 97° East 206 237 12,600 -400 Descending Atlanta Center
Fri 12:49:25 PM 33.5311 -87.1664 84° East 200 230 12,500 -600 Descending Atlanta Center
Fri 12:49:54 PM 33.5322 -87.1289 88° East 196 226 12,000 -700 Descending Atlanta Center
Fri 12:50:25 PM 33.5350 -87.1017 83° East 200 230 11,800 -689 Descending Atlanta Center
Fri 12:50:55 PM 33.5317 -87.0642 96° East 194 223 11,300 -700 Descending Atlanta Center
Fri 12:51:25 PM 33.5344 -87.0369 83° East 200 230 11,100 -800 Descending Atlanta Center
Fri 12:51:55 PM 33.5353 -86.9994 88° East 193 222 10,500 -800 Descending Atlanta Center
Fri 12:52:25 PM 33.5361 -86.9719 88° East 200 230 10,300 -689 Descending Atlanta Center
Fri 12:52:56 PM 33.5347 -86.9372 93° East 194 223 9,800 -700 Descending Atlanta Center
Fri 12:53:25 PM 33.5375 -86.9072 84° East 195 224 9,600 -537 Descending Atlanta Center
Fri 12:54:03 PM 33.5386 -86.8625 88° East 192 221 9,200 -500 Descending Atlanta Center
Fri 12:54:25 PM 33.5389 -86.8450 89° East 195 224 9,100 -600 Descending Atlanta Center
Fri 12:55:03 PM 33.5378 -86.8003 92° East 187 215 8,600 -600 Descending Atlanta Center
Fri 12:55:25 PM 33.5406 -86.7803 81° East 195 224 8,500 -492 Descending Atlanta Center
Fri 12:56:04 PM 33.5392 -86.7381 92° East 185 213 8,100 -600 Descending Atlanta Center
Fri 12:57:05 PM 33.5428 -86.6783 86° East 185 213 7,500 -595 Descending Atlanta Center
Fri 12:58:05 PM 33.5439 -86.6183 89° East 178 205 6,900 -694 Descending Atlanta Center
Fri 12:59:06 PM 33.5453 -86.5561 88° East 172 198 6,100 -787 Descending Atlanta Center
Fri 01:01:00 PM 33.5476 -86.4480 88° East  Level FlightAware Approximate
Fri 01:08:00 PM 33.5667 -86.0504 90° East  Level FlightAware Approximate
Fri 01:09:00 PM 33.5667 -86.0500 90° East  Level FlightAware Approximate
Fri 01:10:00 PM 33.5695 -86.0512 90° East  Level Estimated

Login

Don't have an account? Register now (free) for customized features, flight alerts, and more!